createdAt,value
2019-03-28T00:01:38.390Z,29.48
2019-03-28T00:04:06.836Z,27.00
2019-03-28T00:06:35.278Z,26.85
2019-03-28T00:09:07.703Z,26.95
2019-03-28T00:11:35.778Z,24.32
2019-03-28T00:14:04.293Z,26.15
2019-03-28T00:16:32.787Z,23.98
2019-03-28T00:19:01.294Z,26.10
2019-03-28T00:21:29.735Z,22.42
2019-03-28T00:23:59.836Z,25.95
2019-03-28T00:26:30.471Z,27.77
2019-03-28T00:28:58.464Z,24.90
2019-03-28T00:31:26.948Z,24.75
2019-03-28T00:33:55.391Z,24.43
2019-03-28T00:36:23.835Z,22.42
2019-03-28T00:38:52.312Z,27.60
2019-03-28T00:41:20.758Z,23.98
2019-03-28T00:43:49.192Z,22.02
2019-03-28T00:46:18.055Z,22.40
2019-03-28T00:48:46.505Z,23.15
2019-03-28T00:51:15.080Z,21.60
2019-03-28T00:53:43.567Z,20.92
2019-03-28T00:56:12.028Z,21.55
2019-03-28T00:58:40.479Z,21.80
2019-03-28T01:01:08.957Z,22.60
2019-03-28T01:03:37.551Z,23.77
2019-03-28T01:06:05.991Z,22.65
2019-03-28T01:08:34.484Z,22.15
2019-03-28T01:11:02.924Z,24.20
2019-03-28T01:13:31.364Z,20.30
2019-03-28T01:15:59.840Z,24.37
2019-03-28T01:18:28.300Z,24.92
2019-03-28T01:20:56.750Z,20.08
2019-03-28T01:23:25.216Z,22.42
2019-03-28T01:25:53.730Z,20.32
2019-03-28T01:28:22.170Z,25.25
2019-03-28T01:30:50.651Z,25.85
2019-03-28T01:33:19.100Z,24.05
2019-03-28T01:35:48.231Z,25.72
2019-03-28T01:38:16.783Z,24.30
2019-03-28T01:40:45.607Z,23.27
2019-03-28T01:43:14.184Z,22.40
2019-03-28T01:45:42.944Z,22.17
2019-03-28T01:48:11.393Z,23.77
2019-03-28T01:50:39.992Z,22.37
2019-03-28T01:53:08.533Z,20.62
2019-03-28T01:55:36.975Z,27.65
2019-03-28T01:58:05.448Z,22.75
2019-03-28T02:00:34.148Z,20.92
2019-03-28T02:03:02.599Z,22.37
2019-03-28T02:05:31.051Z,23.60
2019-03-28T02:08:02.509Z,21.02
2019-03-28T02:10:29.776Z,22.17
2019-03-28T02:12:58.212Z,21.80
2019-03-28T02:15:26.776Z,22.55
2019-03-28T02:17:55.296Z,23.73
2019-03-28T02:20:23.804Z,22.65
2019-03-28T02:22:52.289Z,24.80
2019-03-28T02:25:20.736Z,28.07
2019-03-28T02:27:49.255Z,25.02
2019-03-28T02:30:38.582Z,27.73
2019-03-28T02:33:07.026Z,25.43
2019-03-28T02:35:35.468Z,26.87
2019-03-28T02:38:04.005Z,26.17
2019-03-28T02:40:32.452Z,28.83
2019-03-28T02:43:00.884Z,29.65
2019-03-28T02:45:30.007Z,30.23
2019-03-28T02:47:58.891Z,26.35
2019-03-28T02:50:27.334Z,24.25
2019-03-28T02:52:55.803Z,24.55
2019-03-28T02:55:24.316Z,25.05
2019-03-28T02:57:52.837Z,24.27
2019-03-28T03:00:21.452Z,24.90
2019-03-28T03:02:49.901Z,24.15
2019-03-28T03:05:18.425Z,24.10
2019-03-28T03:07:46.891Z,26.68
2019-03-28T03:10:15.548Z,23.60
2019-03-28T03:12:44.007Z,24.77
2019-03-28T03:15:12.815Z,23.45
2019-03-28T03:17:41.745Z,27.35
2019-03-28T03:20:10.896Z,23.73
2019-03-28T03:22:39.444Z,26.85
2019-03-28T03:25:08.324Z,30.15
2019-03-28T03:27:37.198Z,29.50
2019-03-28T03:30:08.287Z,21.95
2019-03-28T03:32:36.797Z,22.52
2019-03-28T03:35:05.776Z,23.73
2019-03-28T03:37:34.309Z,24.57
2019-03-28T03:40:03.135Z,22.45
2019-03-28T03:42:31.587Z,20.12
2019-03-28T03:45:00.067Z,24.45
2019-03-28T03:47:28.589Z,22.17
2019-03-28T03:49:57.061Z,21.75
2019-03-28T03:52:25.601Z,20.60
2019-03-28T03:54:54.046Z,22.77
2019-03-28T03:57:22.495Z,22.15
2019-03-28T03:59:50.969Z,23.83
2019-03-28T04:02:19.488Z,19.82
2019-03-28T04:04:48.028Z,20.50
2019-03-28T04:07:16.577Z,20.60
2019-03-28T04:09:45.021Z,20.15
2019-03-28T04:12:13.471Z,24.40
2019-03-28T04:14:42.033Z,19.27
2019-03-28T04:17:10.550Z,18.85
2019-03-28T04:19:38.986Z,19.37
2019-03-28T04:22:07.471Z,17.73
2019-03-28T04:24:35.934Z,21.42
2019-03-28T04:27:04.445Z,22.10
2019-03-28T04:29:32.922Z,21.00
2019-03-28T04:32:01.364Z,19.98
2019-03-28T04:34:29.806Z,17.42
2019-03-28T04:36:58.281Z,18.90
2019-03-28T04:39:26.725Z,18.52
2019-03-28T04:41:55.181Z,18.07
2019-03-28T04:44:23.643Z,19.48
2019-03-28T04:46:52.086Z,18.30
2019-03-28T04:49:20.529Z,19.52
2019-03-28T04:51:49.004Z,18.67
2019-03-28T04:54:17.459Z,24.12
2019-03-28T04:56:45.907Z,17.75
2019-03-28T04:59:14.933Z,22.32
2019-03-28T05:01:43.885Z,19.82
2019-03-28T05:04:12.340Z,18.60
2019-03-28T05:06:40.822Z,18.95
2019-03-28T05:09:09.266Z,18.60
2019-03-28T05:11:37.708Z,19.02
2019-03-28T05:14:06.187Z,19.77
2019-03-28T05:16:34.638Z,21.48
2019-03-28T05:19:03.075Z,20.80
2019-03-28T05:21:31.622Z,20.60
2019-03-28T05:24:00.130Z,18.85
2019-03-28T05:26:28.599Z,24.82
2019-03-28T05:28:58.137Z,23.90
2019-03-28T05:31:27.234Z,20.15
2019-03-28T05:33:55.673Z,21.30
2019-03-28T05:36:24.148Z,18.05
2019-03-28T05:38:52.589Z,20.88
2019-03-28T05:41:21.028Z,20.30
2019-03-28T05:43:49.511Z,22.90
2019-03-28T05:46:17.955Z,18.85
2019-03-28T05:48:46.397Z,21.27
2019-03-28T05:51:14.855Z,20.15
2019-03-28T05:53:44.095Z,17.55
2019-03-28T05:56:12.801Z,19.77
2019-03-28T05:58:41.277Z,21.12
2019-03-28T06:01:09.734Z,17.55
2019-03-28T06:03:38.178Z,19.00
2019-03-28T06:06:06.655Z,19.77
2019-03-28T06:08:35.109Z,19.80
2019-03-28T06:11:03.634Z,19.20
2019-03-28T06:13:32.110Z,17.02
2019-03-28T06:16:00.552Z,16.97
2019-03-28T06:18:29.006Z,18.52
2019-03-28T06:20:59.575Z,18.00
2019-03-28T06:23:27.731Z,21.23
2019-03-28T06:28:48.164Z,16.70
2019-03-28T06:31:16.624Z,18.85
2019-03-28T06:33:45.076Z,19.55
2019-03-28T06:36:14.325Z,16.70
2019-03-28T06:38:43.075Z,19.20
2019-03-28T06:41:11.508Z,22.98
2019-03-28T06:43:42.080Z,16.45
2019-03-28T06:46:10.147Z,19.90
2019-03-28T06:48:38.597Z,18.62
2019-03-28T06:51:07.067Z,18.95
2019-03-28T06:53:35.504Z,19.73
2019-03-28T06:56:03.960Z,20.35
2019-03-28T06:58:32.441Z,17.87
2019-03-28T07:01:01.151Z,21.12
2019-03-28T07:03:29.675Z,26.42
2019-03-28T07:05:58.156Z,19.42
2019-03-28T07:08:26.616Z,17.70
2019-03-28T07:10:57.887Z,19.05
2019-03-28T07:13:25.253Z,19.42
2019-03-28T07:15:53.705Z,16.48
2019-03-28T07:18:22.145Z,18.90
2019-03-28T07:20:50.666Z,20.43
2019-03-28T07:23:19.176Z,17.42
2019-03-28T07:25:47.617Z,16.00
2019-03-28T07:28:16.091Z,18.35
2019-03-28T07:30:45.369Z,16.12
2019-03-28T07:33:14.033Z,14.45
2019-03-28T07:35:42.517Z,16.40
2019-03-28T07:38:11.028Z,14.65
2019-03-28T07:40:39.467Z,15.05
2019-03-28T07:43:27.284Z,18.85
2019-03-28T07:45:55.719Z,17.98
2019-03-28T07:48:24.155Z,16.20
2019-03-28T07:50:52.626Z,15.35
2019-03-28T07:53:21.597Z,17.87
2019-03-28T07:55:50.283Z,19.82
2019-03-28T07:58:18.761Z,13.72
2019-03-28T08:00:47.207Z,15.98
2019-03-28T08:03:15.651Z,16.95
2019-03-28T08:05:44.127Z,17.73
2019-03-28T08:08:12.635Z,16.30
2019-03-28T08:10:41.081Z,17.10
2019-03-28T08:13:09.556Z,16.97
2019-03-28T08:15:37.991Z,18.85
2019-03-28T08:18:06.500Z,15.83
2019-03-28T08:20:35.035Z,15.32
2019-03-28T08:23:03.473Z,19.90
2019-03-28T08:25:31.991Z,13.10
2019-03-28T08:28:00.465Z,13.35
2019-03-28T08:30:39.843Z,14.98
2019-03-28T08:33:09.312Z,16.27
2019-03-28T08:35:38.196Z,12.80
2019-03-28T08:38:09.717Z,15.00
2019-03-28T08:40:42.026Z,14.80
2019-03-28T08:43:10.684Z,16.50
2019-03-28T08:45:39.303Z,14.68
2019-03-28T08:48:08.117Z,19.05
2019-03-28T08:50:36.565Z,12.78
2019-03-28T08:53:05.094Z,15.08
2019-03-28T08:55:33.700Z,18.65
2019-03-28T08:58:02.156Z,16.82
2019-03-28T09:00:35.049Z,18.55
2019-03-28T09:05:29.284Z,13.93
2019-03-28T09:07:57.734Z,15.15
2019-03-28T09:10:26.220Z,15.63
2019-03-28T09:12:54.660Z,18.40
2019-03-28T09:15:23.131Z,16.27
2019-03-28T09:17:51.674Z,17.35
2019-03-28T09:20:20.178Z,16.57
2019-03-28T09:22:48.626Z,13.32
2019-03-28T09:25:17.099Z,12.35
2019-03-28T09:27:45.548Z,12.13
2019-03-28T09:30:14.820Z,13.78
2019-03-28T09:32:43.363Z,14.35
2019-03-28T09:35:13.717Z,12.40
2019-03-28T09:37:42.169Z,15.15
2019-03-28T09:40:10.991Z,12.75
2019-03-28T09:42:39.434Z,11.83
2019-03-28T09:45:08.241Z,12.25
2019-03-28T09:47:36.772Z,10.95
2019-03-28T09:50:06.971Z,12.18
2019-03-28T09:52:35.539Z,11.65
2019-03-28T09:55:05.508Z,12.23
2019-03-28T09:57:34.031Z,14.23
2019-03-28T10:00:02.551Z,11.88
2019-03-28T10:02:31.018Z,10.58
2019-03-28T10:04:59.476Z,13.28
2019-03-28T10:07:27.928Z,14.03
2019-03-28T10:09:56.711Z,12.75
2019-03-28T10:12:25.291Z,14.47
2019-03-28T10:14:53.739Z,11.30
2019-03-28T10:17:22.488Z,14.25
2019-03-28T10:19:50.932Z,11.70
2019-03-28T10:22:22.235Z,14.13
2019-03-28T10:24:49.648Z,12.65
2019-03-28T10:27:19.319Z,13.35
2019-03-28T10:29:48.015Z,12.33
2019-03-28T10:32:16.499Z,13.50
2019-03-28T10:34:45.020Z,15.13
2019-03-28T10:37:13.464Z,12.65
2019-03-28T10:39:42.008Z,15.72
2019-03-28T10:42:10.455Z,14.03
2019-03-28T10:44:38.912Z,13.93
2019-03-28T10:47:07.387Z,19.15
2019-03-28T10:49:35.832Z,19.02
2019-03-28T10:52:04.449Z,17.12
2019-03-28T10:54:32.993Z,14.63
2019-03-28T10:57:13.070Z,14.53
2019-03-28T10:59:31.606Z,15.58
2019-03-28T11:02:00.068Z,14.95
2019-03-28T11:04:28.508Z,14.07
2019-03-28T11:06:56.958Z,16.87
2019-03-28T11:09:25.492Z,15.95
2019-03-28T11:11:53.937Z,16.93
2019-03-28T11:14:22.391Z,16.00
2019-03-28T11:16:50.868Z,12.93
2019-03-28T11:19:19.317Z,11.70
2019-03-28T11:21:48.010Z,14.18
2019-03-28T11:24:16.482Z,11.65
2019-03-28T11:26:44.969Z,11.48
2019-03-28T11:29:13.411Z,22.80
2019-03-28T11:31:46.801Z,15.53
2019-03-28T11:34:12.123Z,13.70
2019-03-28T11:36:40.570Z,15.95
2019-03-28T11:39:09.187Z,10.55
2019-03-28T11:41:37.637Z,14.68
2019-03-28T11:44:06.158Z,14.45
2019-03-28T11:46:34.640Z,11.80
2019-03-28T11:49:03.085Z,16.05
2019-03-28T11:54:21.481Z,10.93
2019-03-28T11:56:49.926Z,12.80
2019-03-28T11:59:18.368Z,13.68
2019-03-28T12:01:59.413Z,12.60
2019-03-28T12:04:17.135Z,11.65
2019-03-28T12:06:48.805Z,11.40
2019-03-28T12:09:15.947Z,12.70
2019-03-28T12:11:44.458Z,12.78
2019-03-28T12:14:12.989Z,9.05
2019-03-28T12:16:41.466Z,14.38
2019-03-28T12:19:10.031Z,13.72
2019-03-28T12:21:38.538Z,13.05
2019-03-28T12:24:07.013Z,22.90
2019-03-28T12:26:35.692Z,13.08
2019-03-28T12:29:05.807Z,11.55
2019-03-28T12:31:34.607Z,11.38
2019-03-28T12:34:03.055Z,13.15
2019-03-28T12:36:31.505Z,11.28
2019-03-28T12:38:59.981Z,11.65
2019-03-28T12:41:28.434Z,12.07
2019-03-28T12:43:56.996Z,12.80
2019-03-28T12:46:25.817Z,11.20
2019-03-28T12:48:54.491Z,11.97
2019-03-28T12:51:23.018Z,12.53
2019-03-28T12:53:53.760Z,9.53
2019-03-28T12:56:22.211Z,9.50
2019-03-28T12:58:50.648Z,13.15
2019-03-28T13:01:19.125Z,13.20
2019-03-28T13:03:47.586Z,13.35
2019-03-28T13:06:16.023Z,12.95
2019-03-28T13:08:44.590Z,15.85
2019-03-28T13:11:13.041Z,14.40
2019-03-28T13:13:41.494Z,14.80
2019-03-28T13:16:10.049Z,12.60
2019-03-28T13:18:38.492Z,14.05
2019-03-28T13:21:13.379Z,13.62
2019-03-28T13:23:37.207Z,12.88
2019-03-28T13:26:05.717Z,15.18
2019-03-28T13:28:34.173Z,11.97
2019-03-28T13:31:02.678Z,13.68
2019-03-28T13:33:31.195Z,12.80
2019-03-28T13:35:59.930Z,13.22
2019-03-28T13:38:28.396Z,10.53
2019-03-28T13:40:56.851Z,13.72
2019-03-28T13:43:25.307Z,13.95
2019-03-28T13:45:53.777Z,15.48
2019-03-28T13:48:22.216Z,11.53
2019-03-28T13:50:50.656Z,13.15
2019-03-28T13:53:19.149Z,13.80
2019-03-28T13:55:47.679Z,13.03
2019-03-28T13:58:16.133Z,14.65
2019-03-28T14:00:44.619Z,16.95
2019-03-28T14:03:13.074Z,14.28
2019-03-28T14:05:41.600Z,16.77
2019-03-28T14:08:10.154Z,12.35
2019-03-28T14:10:38.595Z,13.18
2019-03-28T14:13:07.048Z,13.78
2019-03-28T14:15:35.528Z,13.53
2019-03-28T14:18:04.265Z,14.25
2019-03-28T14:20:32.714Z,12.13
2019-03-28T14:23:01.190Z,15.90
2019-03-28T14:25:29.703Z,14.43
2019-03-28T14:27:58.296Z,11.48
2019-03-28T14:30:27.510Z,15.13
2019-03-28T14:33:10.154Z,12.75
2019-03-28T14:35:26.363Z,13.53
2019-03-28T14:37:54.840Z,13.62
2019-03-28T14:40:23.431Z,12.73
2019-03-28T14:42:51.892Z,15.72
2019-03-28T14:45:20.450Z,16.75
2019-03-28T14:47:48.888Z,12.53
2019-03-28T14:50:20.424Z,13.03
2019-03-28T14:52:48.995Z,14.98
2019-03-28T14:55:17.459Z,13.90
2019-03-28T14:57:46.544Z,15.30
2019-03-28T15:00:24.073Z,16.50
2019-03-28T15:02:52.536Z,17.40
2019-03-28T15:05:21.085Z,16.30
2019-03-28T15:07:49.569Z,13.50
2019-03-28T15:10:18.024Z,14.13
2019-03-28T15:12:46.485Z,12.28
2019-03-28T15:15:15.127Z,14.60
2019-03-28T15:17:44.999Z,13.18
2019-03-28T15:20:13.768Z,13.70
2019-03-28T15:22:42.247Z,12.45
2019-03-28T15:25:10.839Z,11.73
2019-03-28T15:27:39.284Z,16.37
2019-03-28T15:30:08.696Z,12.25
2019-03-28T15:32:37.144Z,15.45
2019-03-28T15:35:06.434Z,12.30
2019-03-28T15:37:34.956Z,12.23
2019-03-28T15:40:05.528Z,14.28
2019-03-28T15:45:01.662Z,10.88
2019-03-28T15:47:30.107Z,14.47
2019-03-28T15:49:58.557Z,10.70
2019-03-28T15:52:27.627Z,10.20
2019-03-28T15:54:56.251Z,12.88
2019-03-28T15:57:24.700Z,13.10
2019-03-28T15:59:53.187Z,12.98
2019-03-28T16:02:21.708Z,13.40
2019-03-28T16:04:50.164Z,12.20
2019-03-28T16:07:18.647Z,12.85
2019-03-28T16:09:47.083Z,13.68
2019-03-28T16:12:15.524Z,9.95
2019-03-28T16:14:44.036Z,11.38
2019-03-28T16:17:12.488Z,11.33
2019-03-28T16:19:40.980Z,11.63
2019-03-28T16:22:09.477Z,10.05
2019-03-28T16:24:37.934Z,8.95
2019-03-28T16:27:06.386Z,10.68
2019-03-28T16:29:34.931Z,9.18
2019-03-28T16:32:03.386Z,11.70
2019-03-28T16:34:31.832Z,12.10
2019-03-28T16:37:00.311Z,10.23
2019-03-28T16:39:28.757Z,9.78
2019-03-28T16:41:57.201Z,8.48
2019-03-28T16:44:25.687Z,7.00
2019-03-28T16:46:54.195Z,7.30
2019-03-28T16:49:22.648Z,11.57
2019-03-28T16:51:51.760Z,7.42
2019-03-28T16:54:29.190Z,6.25
2019-03-28T16:56:51.553Z,9.88
2019-03-28T16:59:20.085Z,6.90
2019-03-28T17:01:48.618Z,6.60
2019-03-28T17:04:20.873Z,7.85
2019-03-28T17:06:47.784Z,7.78
2019-03-28T17:09:16.355Z,6.80
2019-03-28T17:11:44.803Z,9.25
2019-03-28T17:14:13.277Z,8.40
2019-03-28T17:16:42.779Z,6.80
2019-03-28T17:19:11.448Z,9.98
2019-03-28T17:21:40.054Z,7.87
2019-03-28T17:24:08.559Z,7.50
2019-03-28T17:26:37.012Z,8.35
2019-03-28T17:29:05.496Z,9.20
2019-03-28T17:31:34.157Z,8.10
2019-03-28T17:34:02.637Z,9.73
2019-03-28T17:36:31.103Z,8.95
2019-03-28T17:38:59.551Z,10.03
2019-03-28T17:41:28.065Z,11.28
2019-03-28T17:43:56.617Z,9.13
2019-03-28T17:46:25.134Z,8.38
2019-03-28T17:48:53.581Z,7.15
2019-03-28T17:51:22.057Z,7.70
2019-03-28T17:53:50.497Z,10.03
2019-03-28T17:56:19.024Z,12.58
2019-03-28T17:58:47.592Z,9.18
2019-03-28T18:01:16.455Z,7.72
2019-03-28T18:03:44.897Z,9.65
2019-03-28T18:06:13.485Z,8.43
2019-03-28T18:08:41.933Z,10.43
2019-03-28T18:11:10.409Z,9.90
2019-03-28T18:13:38.920Z,8.40
2019-03-28T18:16:07.685Z,12.68
2019-03-28T18:18:36.379Z,9.73
2019-03-28T18:21:04.856Z,10.55
2019-03-28T18:23:33.509Z,11.75
2019-03-28T18:26:02.080Z,15.10
2019-03-28T18:28:31.624Z,11.30
2019-03-28T18:31:00.721Z,15.00
2019-03-28T18:33:30.823Z,13.48
2019-03-28T18:36:00.082Z,14.77
2019-03-28T18:38:30.836Z,15.15
2019-03-28T18:40:59.680Z,14.58
2019-03-28T18:43:28.228Z,15.78
2019-03-28T18:45:56.769Z,17.67
2019-03-28T18:48:31.620Z,13.28
2019-03-28T18:50:55.591Z,16.77
2019-03-28T18:53:24.189Z,14.13
2019-03-28T18:55:52.834Z,14.50
2019-03-28T18:58:21.379Z,16.97
2019-03-28T19:00:49.990Z,19.30
2019-03-28T19:03:18.500Z,18.05
2019-03-28T19:05:48.840Z,12.55
2019-03-28T19:08:17.789Z,15.28
2019-03-28T19:10:46.400Z,20.43
2019-03-28T19:13:14.946Z,14.47
2019-03-28T19:15:43.547Z,16.95
2019-03-28T19:18:12.099Z,16.35
2019-03-28T19:20:40.670Z,14.87
2019-03-28T19:23:09.264Z,13.83
2019-03-28T19:25:37.695Z,15.32
2019-03-28T19:28:07.760Z,15.90
2019-03-28T19:30:36.734Z,17.30
2019-03-28T19:33:07.070Z,19.35
2019-03-28T19:35:36.786Z,14.58
2019-03-28T19:38:08.858Z,17.30
2019-03-28T19:40:35.828Z,18.32
2019-03-28T19:43:19.253Z,18.45
2019-03-28T19:45:36.563Z,16.32
2019-03-28T19:48:06.307Z,22.37
2019-03-28T19:50:34.963Z,16.75
2019-03-28T19:53:03.546Z,21.20
2019-03-28T19:55:31.992Z,21.68
2019-03-28T19:58:00.536Z,23.70
2019-03-28T20:00:29.364Z,20.17
2019-03-28T20:03:00.362Z,20.82
2019-03-28T20:05:28.268Z,22.10
2019-03-28T20:07:56.711Z,17.30
2019-03-28T20:10:25.227Z,30.40
2019-03-28T20:12:53.707Z,23.12
2019-03-28T20:15:22.155Z,23.10
2019-03-28T20:17:50.604Z,25.85
2019-03-28T20:20:19.212Z,25.85
2019-03-28T20:22:47.655Z,24.65
2019-03-28T20:25:16.096Z,24.12
2019-03-28T20:27:44.580Z,20.90
2019-03-28T20:30:13.329Z,20.05
2019-03-28T20:32:41.842Z,24.15
2019-03-28T20:35:11.108Z,27.93
2019-03-28T20:37:39.573Z,27.35
2019-03-28T20:40:08.653Z,21.87
2019-03-28T20:42:37.135Z,27.62
2019-03-28T20:45:07.530Z,24.02
2019-03-28T20:47:36.052Z,22.17
2019-03-28T20:50:07.686Z,24.12
2019-03-28T20:52:36.124Z,24.52
2019-03-28T20:55:06.304Z,24.85
2019-03-28T20:57:35.925Z,23.12
2019-03-28T21:00:08.544Z,27.50
2019-03-28T21:02:36.331Z,24.02
2019-03-28T21:05:06.544Z,27.62
2019-03-28T21:07:35.056Z,26.52
2019-03-28T21:10:04.279Z,28.85
2019-03-28T21:12:32.747Z,26.90
2019-03-28T21:15:01.224Z,27.70
2019-03-28T21:17:32.135Z,26.37
2019-03-28T21:20:00.009Z,25.17
2019-03-28T21:22:28.453Z,25.65
2019-03-28T21:24:57.022Z,27.22
2019-03-28T21:27:25.549Z,24.80
2019-03-28T21:29:54.005Z,24.20
2019-03-28T21:32:22.636Z,25.32
2019-03-28T21:34:55.981Z,24.50
2019-03-28T21:37:21.558Z,25.97
2019-03-28T21:39:50.021Z,28.30
2019-03-28T21:42:20.136Z,24.15
2019-03-28T21:44:48.887Z,27.23
2019-03-28T21:47:17.520Z,27.77
2019-03-28T21:49:45.991Z,25.85
2019-03-28T21:52:14.555Z,27.65
2019-03-28T21:54:43.082Z,27.50
2019-03-28T21:57:14.486Z,26.60
2019-03-28T21:59:41.820Z,28.83
2019-03-28T22:02:10.445Z,33.50
2019-03-28T22:04:38.979Z,30.12
2019-03-28T22:07:08.684Z,30.82
2019-03-28T22:09:39.570Z,28.70
2019-03-28T22:12:10.240Z,30.15
2019-03-28T22:14:39.808Z,29.52
2019-03-28T22:17:08.451Z,32.63
2019-03-28T22:19:36.912Z,31.37
2019-03-28T22:22:05.385Z,29.25
2019-03-28T22:24:33.819Z,31.00
2019-03-28T22:27:02.329Z,31.23
2019-03-28T22:29:30.861Z,31.25
2019-03-28T22:31:59.305Z,32.73
2019-03-28T22:34:27.778Z,31.77
2019-03-28T22:36:59.248Z,32.33
2019-03-28T22:39:26.671Z,29.48
2019-03-28T22:41:55.223Z,30.35
2019-03-28T22:44:24.970Z,33.18
2019-03-28T22:46:53.712Z,32.58
2019-03-28T22:49:22.353Z,34.20
2019-03-28T22:51:50.897Z,31.75
2019-03-28T22:54:19.464Z,35.38
2019-03-28T22:56:48.004Z,33.80
2019-03-28T22:59:16.520Z,37.13
2019-03-28T23:01:45.028Z,33.30
2019-03-28T23:04:19.697Z,32.00
2019-03-28T23:06:48.878Z,37.80
2019-03-28T23:09:17.451Z,35.33
2019-03-28T23:11:46.022Z,32.95
2019-03-28T23:14:14.597Z,38.10
2019-03-28T23:16:43.044Z,34.85
2019-03-28T23:19:12.122Z,32.23
2019-03-28T23:21:41.607Z,37.55
2019-03-28T23:24:10.131Z,34.60
2019-03-28T23:26:38.669Z,38.13
2019-03-28T23:29:07.116Z,33.25
2019-03-28T23:32:13.148Z,36.40
2019-03-28T23:34:41.611Z,35.83
2019-03-28T23:37:10.056Z,35.85
2019-03-28T23:39:38.996Z,38.42
2019-03-28T23:42:07.529Z,38.98
2019-03-28T23:44:42.032Z,42.33
2019-03-28T23:47:10.487Z,41.42
2019-03-28T23:49:40.474Z,36.55
2019-03-28T23:52:09.260Z,38.75
2019-03-28T23:54:37.748Z,39.45
2019-03-28T23:57:06.276Z,43.38
2019-03-28T23:59:34.729Z,43.95
